createdAt,value
2022-09-28T00:01:28.139Z,73.87
2022-09-28T00:04:31.388Z,73.94
2022-09-28T00:07:34.273Z,74.20
2022-09-28T00:10:37.813Z,73.96
2022-09-28T00:13:43.070Z,74.06
2022-09-28T00:16:46.198Z,74.04
2022-09-28T00:19:49.921Z,73.96
2022-09-28T00:22:52.740Z,74.12
2022-09-28T00:25:55.499Z,74.00
2022-09-28T00:29:00.818Z,73.88
2022-09-28T00:32:06.515Z,74.07
2022-09-28T00:35:09.819Z,74.52
2022-09-28T00:38:12.779Z,74.29
2022-09-28T00:41:16.417Z,74.25
2022-09-28T00:44:34.063Z,74.37
2022-09-28T00:47:51.636Z,74.44
2022-09-28T00:50:57.685Z,74.04
2022-09-28T00:54:03.718Z,73.89
2022-09-28T00:57:06.846Z,73.94
2022-09-28T01:00:10.890Z,74.20
2022-09-28T01:03:14.537Z,74.31
2022-09-28T01:06:20.706Z,74.03
2022-09-28T01:09:25.664Z,73.84
2022-09-28T01:12:28.769Z,74.00
2022-09-28T01:15:37.566Z,74.15
2022-09-28T01:19:10.639Z,74.03
2022-09-28T01:22:35.270Z,73.84
2022-09-28T01:25:38.581Z,73.72
2022-09-28T01:28:45.462Z,73.73
2022-09-28T01:32:05.375Z,73.69
2022-09-28T01:35:31.552Z,73.71
2022-09-28T01:38:52.155Z,73.83
2022-09-28T01:42:00.158Z,74.17
2022-09-28T01:45:09.625Z,74.37
2022-09-28T01:48:17.678Z,74.35
2022-09-28T01:51:35.981Z,74.43
2022-09-28T01:54:44.122Z,74.29
2022-09-28T01:57:59.614Z,73.93
2022-09-28T02:01:16.787Z,74.13
2022-09-28T02:04:36.313Z,74.59
2022-09-28T02:07:45.405Z,74.57
2022-09-28T02:11:15.753Z,74.61
2022-09-28T02:14:20.091Z,75.11
2022-09-28T02:17:22.980Z,75.24
2022-09-28T02:20:26.660Z,75.60
2022-09-28T02:23:32.314Z,75.44
2022-09-28T02:26:42.215Z,76.29
2022-09-28T02:29:45.124Z,76.36
2022-09-28T02:32:53.058Z,76.27
2022-09-28T02:35:58.676Z,75.85
2022-09-28T02:39:02.500Z,75.30
2022-09-28T02:42:11.835Z,75.77
2022-09-28T02:45:38.167Z,75.63
2022-09-28T02:49:20.166Z,75.70
2022-09-28T02:52:42.766Z,75.86
2022-09-28T02:56:20.674Z,75.41
2022-09-28T02:59:38.154Z,75.18
2022-09-28T03:02:57.277Z,75.16
2022-09-28T03:06:06.525Z,75.20
2022-09-28T03:09:26.829Z,74.90
2022-09-28T03:12:30.194Z,74.58
2022-09-28T03:15:36.148Z,74.61
2022-09-28T03:18:39.342Z,74.41
2022-09-28T03:21:42.245Z,74.42
2022-09-28T03:24:44.997Z,74.48
2022-09-28T03:27:47.905Z,74.42
2022-09-28T03:30:50.771Z,74.30
2022-09-28T03:33:55.943Z,74.17
2022-09-28T03:36:58.921Z,74.32
2022-09-28T03:40:02.093Z,74.38
2022-09-28T03:43:04.910Z,74.38
2022-09-28T03:46:07.851Z,74.44
2022-09-28T03:49:11.020Z,74.37
2022-09-28T03:52:14.628Z,74.41
2022-09-28T03:55:17.981Z,74.36
2022-09-28T03:58:21.660Z,74.15
2022-09-28T04:01:24.542Z,74.21
2022-09-28T04:04:27.394Z,74.35
2022-09-28T04:07:31.258Z,74.34
2022-09-28T04:10:34.212Z,74.20
2022-09-28T04:13:37.479Z,74.25
2022-09-28T04:16:40.738Z,74.12
2022-09-28T04:19:43.817Z,74.60
2022-09-28T04:22:46.652Z,74.66
2022-09-28T04:25:52.605Z,74.53
2022-09-28T04:29:14.184Z,74.64
2022-09-28T04:32:17.295Z,74.81
2022-09-28T04:35:20.302Z,74.80
2022-09-28T04:38:41.514Z,75.00
2022-09-28T04:41:48.624Z,74.76
2022-09-28T04:44:51.518Z,74.68
2022-09-28T04:47:55.009Z,74.55
2022-09-28T04:51:00.737Z,74.58
2022-09-28T04:54:03.805Z,74.82
2022-09-28T04:57:07.232Z,74.39
2022-09-28T05:00:12.267Z,74.28
2022-09-28T05:03:15.287Z,74.18
2022-09-28T05:06:18.185Z,74.03
2022-09-28T05:09:21.020Z,74.16
2022-09-28T05:12:24.368Z,74.04
2022-09-28T05:15:27.313Z,74.05
2022-09-28T05:18:30.200Z,73.99
2022-09-28T05:21:33.037Z,74.12
2022-09-28T05:24:35.826Z,74.09
2022-09-28T05:27:38.577Z,74.22
2022-09-28T05:30:41.432Z,74.21
2022-09-28T05:33:44.511Z,74.19
2022-09-28T05:36:47.524Z,74.36
2022-09-28T05:39:50.402Z,74.17
2022-09-28T05:42:53.430Z,74.20
2022-09-28T05:46:14.930Z,74.23
2022-09-28T05:49:17.944Z,74.38
2022-09-28T05:52:21.001Z,74.61
2022-09-28T05:55:23.923Z,74.53
2022-09-28T05:58:41.918Z,74.30
2022-09-28T06:01:48.006Z,73.95
2022-09-28T06:04:51.458Z,73.99
2022-09-28T06:07:59.332Z,74.04
2022-09-28T06:11:02.658Z,74.13
2022-09-28T06:14:05.730Z,73.87
2022-09-28T06:17:09.019Z,74.01
2022-09-28T06:20:12.050Z,74.07
2022-09-28T06:23:15.082Z,74.40
2022-09-28T06:26:18.326Z,74.25
2022-09-28T06:29:21.260Z,74.21
2022-09-28T06:32:26.564Z,74.01
2022-09-28T06:35:31.535Z,74.05
2022-09-28T06:38:34.505Z,74.06
2022-09-28T06:41:37.413Z,73.90
2022-09-28T06:44:40.399Z,73.81
2022-09-28T06:47:43.345Z,73.79
2022-09-28T06:50:46.538Z,73.89
2022-09-28T06:53:49.381Z,73.72
2022-09-28T06:56:53.299Z,73.72
2022-09-28T06:59:56.180Z,73.44
2022-09-28T07:02:59.017Z,73.64
2022-09-28T07:06:02.271Z,73.39
2022-09-28T07:09:25.865Z,73.39
2022-09-28T07:12:30.397Z,73.45
2022-09-28T07:15:33.283Z,72.99
2022-09-28T07:18:36.079Z,73.06
2022-09-28T07:21:38.984Z,72.91
2022-09-28T07:24:44.599Z,72.99
2022-09-28T07:27:58.062Z,72.97
2022-09-28T07:31:03.642Z,73.11
2022-09-28T07:34:06.585Z,73.13
2022-09-28T07:37:12.003Z,73.18
2022-09-28T07:40:34.097Z,73.14
2022-09-28T07:43:40.071Z,73.03
2022-09-28T07:46:44.479Z,73.11
2022-09-28T07:49:52.191Z,73.32
2022-09-28T07:52:58.833Z,73.08
2022-09-28T07:56:17.418Z,73.19
2022-09-28T07:59:20.577Z,73.07
2022-09-28T08:02:24.725Z,73.03
2022-09-28T08:05:32.249Z,73.08
2022-09-28T08:08:35.870Z,73.16
2022-09-28T08:11:38.905Z,73.12
2022-09-28T08:14:42.763Z,73.05
2022-09-28T08:17:49.625Z,73.03
2022-09-28T08:21:11.960Z,72.78
2022-09-28T08:24:16.754Z,72.77
2022-09-28T08:27:19.618Z,72.92
2022-09-28T08:30:22.652Z,72.86
2022-09-28T08:33:53.896Z,72.60
2022-09-28T08:36:57.907Z,72.42
2022-09-28T08:40:01.023Z,72.35
2022-09-28T08:43:15.020Z,72.08
2022-09-28T08:46:23.889Z,72.33
2022-09-28T08:49:41.760Z,72.30
2022-09-28T08:52:49.412Z,72.11
2022-09-28T08:55:53.189Z,72.12
2022-09-28T08:59:02.807Z,72.05
2022-09-28T09:02:24.241Z,71.86
2022-09-28T09:05:42.899Z,71.98
2022-09-28T09:08:56.336Z,71.65
2022-09-28T09:12:02.079Z,71.94
2022-09-28T09:15:25.656Z,71.90
2022-09-28T09:18:37.548Z,71.92
2022-09-28T09:21:46.593Z,71.68
2022-09-28T09:25:07.483Z,71.49
2022-09-28T09:28:28.482Z,70.86
2022-09-28T09:31:47.573Z,71.34
2022-09-28T09:35:01.585Z,71.29
2022-09-28T09:38:34.624Z,71.26
2022-09-28T09:41:46.789Z,71.20
2022-09-28T09:45:24.756Z,70.77
2022-09-28T09:48:36.813Z,70.88
2022-09-28T09:52:03.092Z,70.33
2022-09-28T09:55:40.801Z,69.86
2022-09-28T09:58:53.207Z,70.33
2022-09-28T10:01:57.094Z,70.25
2022-09-28T10:05:05.210Z,70.25
2022-09-28T10:08:07.998Z,70.15
2022-09-28T10:11:17.269Z,70.17
2022-09-28T10:14:22.962Z,69.53
2022-09-28T10:17:27.518Z,69.11
2022-09-28T10:20:35.116Z,69.88
2022-09-28T10:23:38.143Z,69.38
2022-09-28T10:26:46.882Z,69.63
2022-09-28T10:29:54.178Z,69.54
2022-09-28T10:33:00.847Z,69.71
2022-09-28T10:36:07.484Z,68.99
2022-09-28T10:39:24.610Z,69.19
2022-09-28T10:42:30.757Z,68.93
2022-09-28T10:45:37.657Z,68.97
2022-09-28T10:49:13.142Z,68.85
2022-09-28T10:52:32.822Z,69.17
2022-09-28T10:55:37.120Z,68.95
2022-09-28T10:58:42.284Z,68.71
2022-09-28T11:01:45.239Z,69.01
2022-09-28T11:04:55.433Z,69.02
2022-09-28T11:08:00.854Z,69.36
2022-09-28T11:11:07.726Z,68.88
2022-09-28T11:14:23.714Z,69.26
2022-09-28T11:17:30.219Z,69.15
2022-09-28T11:20:35.698Z,68.97
2022-09-28T11:23:38.624Z,69.18
2022-09-28T11:26:44.265Z,69.39
2022-09-28T11:29:56.180Z,69.22
2022-09-28T11:33:17.847Z,69.37
2022-09-28T11:36:30.810Z,69.31
2022-09-28T11:39:51.542Z,69.20
2022-09-28T11:43:38.826Z,68.59
2022-09-28T11:46:59.585Z,69.23
2022-09-28T11:50:08.434Z,69.13
2022-09-28T11:53:17.015Z,68.65
2022-09-28T11:56:32.242Z,68.19
2022-09-28T11:59:40.142Z,68.06
2022-09-28T12:02:49.349Z,68.32
2022-09-28T12:05:58.627Z,68.52
2022-09-28T12:09:13.436Z,68.31
2022-09-28T12:12:27.844Z,68.02
2022-09-28T12:16:07.747Z,68.21
2022-09-28T12:19:16.758Z,68.61
2022-09-28T12:22:31.454Z,69.29
2022-09-28T12:25:46.833Z,69.67
2022-09-28T12:28:53.411Z,69.58
2022-09-28T12:32:06.006Z,70.51
2022-09-28T12:35:15.053Z,70.72
2022-09-28T12:38:42.764Z,70.70
2022-09-28T12:42:15.229Z,70.56
2022-09-28T12:45:21.070Z,71.31
2022-09-28T12:48:29.835Z,71.14
2022-09-28T12:51:47.481Z,71.08
2022-09-28T12:55:00.092Z,71.46
2022-09-28T12:58:31.329Z,71.80
2022-09-28T13:01:53.076Z,73.30
2022-09-28T13:05:34.606Z,72.83
2022-09-28T13:08:37.533Z,72.77
2022-09-28T13:12:13.303Z,72.60
2022-09-28T13:15:32.400Z,72.82
2022-09-28T13:18:43.805Z,72.75
2022-09-28T13:21:51.442Z,72.92
2022-09-28T13:24:57.203Z,72.52
2022-09-28T13:28:03.864Z,72.15
2022-09-28T13:31:07.981Z,72.08
2022-09-28T13:34:18.514Z,71.77
2022-09-28T13:37:24.580Z,71.62
2022-09-28T13:41:05.211Z,71.43
2022-09-28T13:44:16.853Z,71.20
2022-09-28T13:47:31.063Z,71.08
2022-09-28T13:51:05.221Z,70.86
2022-09-28T13:54:15.824Z,71.08
2022-09-28T13:57:29.614Z,71.12
2022-09-28T14:00:44.101Z,71.23
2022-09-28T14:04:19.451Z,71.42
2022-09-28T14:10:46.593Z,71.39
2022-09-28T14:14:07.582Z,71.31
2022-09-28T14:17:19.577Z,71.33
2022-09-28T14:20:25.566Z,71.20
2022-09-28T14:23:57.588Z,71.21
2022-09-28T14:27:27.688Z,71.17
2022-09-28T14:30:42.826Z,71.07
2022-09-28T14:33:57.114Z,70.96
2022-09-28T14:37:22.123Z,71.00
2022-09-28T14:40:49.725Z,71.23
2022-09-28T14:44:08.854Z,71.25
2022-09-28T14:47:38.162Z,71.30
2022-09-28T14:50:41.247Z,71.10
2022-09-28T14:53:45.410Z,71.08
2022-09-28T14:56:54.648Z,71.37
2022-09-28T14:59:59.850Z,71.37
2022-09-28T15:03:08.896Z,71.49
2022-09-28T15:06:20.316Z,71.36
2022-09-28T15:09:34.841Z,71.16
2022-09-28T15:12:37.975Z,71.12
2022-09-28T15:15:41.707Z,70.72
2022-09-28T15:19:21.141Z,70.69
2022-09-28T15:22:24.423Z,70.89
2022-09-28T15:25:30.368Z,70.97
2022-09-28T15:28:36.235Z,71.01
2022-09-28T15:31:39.108Z,71.18
2022-09-28T15:35:02.138Z,71.51
2022-09-28T15:38:13.636Z,71.86
2022-09-28T15:41:17.334Z,71.51
2022-09-28T15:44:37.256Z,71.55
2022-09-28T15:47:41.490Z,71.84
2022-09-28T15:50:58.396Z,72.18
2022-09-28T15:54:09.435Z,72.26
2022-09-28T15:57:37.319Z,72.30
2022-09-28T16:00:40.643Z,72.51
2022-09-28T16:03:43.842Z,72.45
2022-09-28T16:07:10.143Z,72.71
2022-09-28T16:10:18.960Z,72.87
2022-09-28T16:13:24.176Z,73.02
2022-09-28T16:16:34.436Z,73.29
2022-09-28T16:19:39.102Z,73.48
2022-09-28T16:22:43.489Z,73.69
2022-09-28T16:26:02.185Z,74.05
2022-09-28T16:29:25.984Z,74.00
2022-09-28T16:32:36.231Z,74.05
2022-09-28T16:35:42.122Z,74.28
2022-09-28T16:38:45.732Z,74.49
2022-09-28T16:41:59.787Z,74.47
2022-09-28T16:45:05.391Z,74.33
2022-09-28T16:48:14.724Z,74.11
2022-09-28T16:51:19.436Z,73.86
2022-09-28T16:54:43.493Z,73.85
2022-09-28T16:57:52.276Z,74.00
2022-09-28T17:00:55.807Z,73.80
2022-09-28T17:03:58.947Z,74.07
2022-09-28T17:07:01.983Z,73.74
2022-09-28T17:10:19.441Z,73.87
2022-09-28T17:13:30.158Z,74.17
2022-09-28T17:17:02.399Z,73.88
2022-09-28T17:19:56.392Z,73.93
2022-09-28T17:22:59.454Z,74.17
2022-09-28T17:26:06.538Z,74.24
2022-09-28T17:29:14.983Z,74.88
2022-09-28T17:32:19.248Z,75.11
2022-09-28T17:35:24.651Z,75.63
2022-09-28T17:38:28.724Z,76.07
2022-09-28T17:41:32.783Z,76.48
2022-09-28T17:44:36.361Z,76.48
2022-09-28T17:47:39.228Z,76.84
2022-09-28T17:50:46.384Z,77.07
2022-09-28T17:53:49.616Z,76.97
2022-09-28T17:56:52.543Z,77.17
2022-09-28T17:59:55.361Z,77.59
2022-09-28T18:02:59.243Z,77.13
2022-09-28T18:06:06.722Z,77.28
2022-09-28T18:09:14.082Z,77.61
2022-09-28T18:12:17.070Z,77.22
2022-09-28T18:15:19.994Z,77.58
2022-09-28T18:18:24.192Z,77.33
2022-09-28T18:21:27.129Z,77.72
2022-09-28T18:24:32.624Z,77.75
2022-09-28T18:27:35.525Z,77.97
2022-09-28T18:30:41.111Z,77.97
2022-09-28T18:33:43.965Z,77.90
2022-09-28T18:36:47.382Z,78.24
2022-09-28T18:39:51.403Z,78.00
2022-09-28T18:42:54.341Z,77.83
2022-09-28T18:45:57.316Z,77.80
2022-09-28T18:49:00.155Z,77.71
2022-09-28T18:52:03.643Z,77.64
2022-09-28T18:55:08.247Z,78.02
2022-09-28T18:58:12.229Z,78.28
2022-09-28T19:01:32.826Z,78.25
2022-09-28T19:04:36.614Z,78.33
2022-09-28T19:07:39.616Z,78.35
2022-09-28T19:10:42.597Z,79.03
2022-09-28T19:13:45.599Z,79.35
2022-09-28T19:16:48.596Z,79.34
2022-09-28T19:19:52.276Z,79.04
2022-09-28T19:22:58.182Z,78.72
2022-09-28T19:26:06.425Z,79.32
2022-09-28T19:29:13.776Z,79.16
2022-09-28T19:32:16.555Z,79.14
2022-09-28T19:35:19.807Z,79.42
2022-09-28T19:38:23.097Z,79.60
2022-09-28T19:41:43.475Z,79.39
2022-09-28T19:44:48.296Z,79.32
2022-09-28T19:47:52.239Z,79.01
2022-09-28T19:51:03.096Z,79.11
2022-09-28T19:54:07.153Z,79.43
2022-09-28T19:57:11.871Z,79.37
2022-09-28T20:00:18.166Z,79.09
2022-09-28T20:03:22.858Z,79.51
2022-09-28T20:06:27.019Z,79.46
2022-09-28T20:09:33.309Z,79.35
2022-09-28T20:12:36.654Z,79.38
2022-09-28T20:15:40.171Z,79.48
2022-09-28T20:18:50.906Z,79.75
2022-09-28T20:21:55.041Z,79.80
2022-09-28T20:24:58.629Z,79.87
2022-09-28T20:28:04.867Z,79.91
2022-09-28T20:31:11.327Z,79.79
2022-09-28T20:34:14.558Z,80.01
2022-09-28T20:37:17.820Z,80.05
2022-09-28T20:40:21.047Z,80.07
2022-09-28T20:43:24.382Z,80.51
2022-09-28T20:46:28.088Z,80.45
2022-09-28T20:49:31.876Z,80.74
2022-09-28T20:52:35.055Z,80.83
2022-09-28T20:55:38.045Z,80.38
2022-09-28T20:58:41.263Z,80.02
2022-09-28T21:01:44.232Z,79.80
2022-09-28T21:04:47.083Z,79.62
2022-09-28T21:07:49.910Z,79.70
2022-09-28T21:10:54.150Z,79.56
2022-09-28T21:13:59.615Z,79.75
2022-09-28T21:17:02.540Z,79.96
2022-09-28T21:20:07.066Z,80.02
2022-09-28T21:23:10.797Z,79.60
2022-09-28T21:26:24.986Z,79.62
2022-09-28T21:29:28.144Z,79.36
2022-09-28T21:32:31.161Z,79.21
2022-09-28T21:35:39.511Z,79.05
2022-09-28T21:38:42.286Z,79.07
2022-09-28T21:41:45.173Z,79.21
2022-09-28T21:44:47.973Z,79.35
2022-09-28T21:47:54.918Z,79.42
2022-09-28T21:50:58.915Z,79.15
2022-09-28T21:54:01.906Z,79.48
2022-09-28T21:57:04.740Z,79.56
2022-09-28T22:00:08.731Z,79.56
2022-09-28T22:03:11.766Z,79.49
2022-09-28T22:06:16.410Z,79.71
2022-09-28T22:09:19.370Z,79.50
2022-09-28T22:12:22.457Z,79.39
2022-09-28T22:15:25.535Z,79.14
2022-09-28T22:18:30.417Z,79.21
2022-09-28T22:21:35.068Z,79.36
2022-09-28T22:24:37.857Z,79.20
2022-09-28T22:27:40.819Z,78.99
2022-09-28T22:30:44.820Z,78.86
2022-09-28T22:33:48.490Z,78.85
2022-09-28T22:36:51.238Z,78.62
2022-09-28T22:39:55.513Z,78.46
2022-09-28T22:42:58.333Z,78.37
2022-09-28T22:46:06.714Z,78.35
2022-09-28T22:49:10.470Z,78.18
2022-09-28T22:52:13.304Z,78.35
2022-09-28T22:55:16.203Z,78.22
2022-09-28T22:58:19.113Z,78.08
2022-09-28T23:01:28.157Z,77.95
2022-09-28T23:04:32.075Z,77.94
2022-09-28T23:07:34.840Z,78.03
2022-09-28T23:10:37.632Z,78.02
2022-09-28T23:13:40.413Z,77.70
2022-09-28T23:16:43.263Z,77.74
2022-09-28T23:19:46.069Z,77.66
2022-09-28T23:22:49.696Z,77.67
2022-09-28T23:25:53.569Z,77.49
2022-09-28T23:29:20.973Z,77.42
2022-09-28T23:32:26.531Z,77.62
2022-09-28T23:35:31.418Z,77.42
2022-09-28T23:38:34.515Z,77.67
2022-09-28T23:41:38.223Z,77.55
2022-09-28T23:44:41.041Z,77.67
2022-09-28T23:47:43.789Z,77.76
2022-09-28T23:50:46.616Z,77.60
2022-09-28T23:53:49.456Z,77.59
2022-09-28T23:56:52.289Z,77.77
2022-09-28T23:59:55.236Z,77.68
